Time;durP1;ratioP1;P1;durP2;ratioP2;P2;SDS_P1;SDS_P2;PMS_P1;PMS_P2;Temp;Humidity;BMP_temperature;BMP_pressure;BME280_temperature;BME280_humidity;BME280_pressure;Samples;Min_cycle;Max_cycle;Signal;HPM_P1;HPM_P2
2022/06/28 00:01:30;;;;;;;0.20;0.20;;;;;;;-148.56;100.00;61375.16;5002956;28;20672;-33
2022/06/28 00:03:56;;;;;;;0.10;0.10;;;;;;;-148.56;100.00;61375.16;5003313;28;21041;-32
2022/06/28 00:06:21;;;;;;;0.10;0.10;;;;;;;-148.56;100.00;61375.16;5009454;28;20075;-33
2022/06/28 00:08:47;;;;;;;0.13;0.13;;;;;;;-148.56;100.00;61375.16;5006347;28;20518;-34
2022/06/28 00:11:12;;;;;;;0.28;0.20;;;;;;;-148.56;100.00;61375.16;5008391;28;20038;-33
2022/06/28 00:13:37;;;;;;;0.20;0.20;;;;;;;-148.56;100.00;61375.16;5005927;28;20087;-38
2022/06/28 00:16:06;;;;;;;0.20;0.20;;;;;;;-148.56;100.00;61375.16;5009304;28;20087;-31
2022/06/28 00:18:39;;;;;;;0.20;0.20;;;;;;;-148.56;100.00;61375.16;5004055;28;20114;-36
2022/06/28 00:21:06;;;;;;;0.10;0.10;;;;;;;-148.56;100.00;61375.16;5008943;28;20446;-31
2022/06/28 00:23:32;;;;;;;0.20;0.20;;;;;;;-148.56;100.00;61375.16;5004595;28;20099;-33
2022/06/28 00:25:57;;;;;;;0.55;0.10;;;;;;;-148.56;100.00;61375.16;5005221;28;20502;-36
2022/06/28 00:28:22;;;;;;;0.17;0.10;;;;;;;-148.56;100.00;61375.16;5006713;28;20029;-35
2022/06/28 00:30:48;;;;;;;0.10;0.10;;;;;;;-148.56;100.00;61375.16;5007088;28;20047;-36
2022/06/28 00:33:13;;;;;;;0.10;0.10;;;;;;;-148.56;100.00;61375.16;5005955;28;20075;-31
2022/06/28 00:35:39;;;;;;;0.40;0.20;;;;;;;-148.56;100.00;61375.16;5007920;28;20517;-33
2022/06/28 00:38:04;;;;;;;0.10;0.10;;;;;;;-148.56;100.00;61375.16;5006206;28;20030;-35
2022/06/28 00:40:31;;;;;;;0.20;0.20;;;;;;;-148.56;100.00;61375.16;5006187;28;20103;-34
2022/06/28 00:42:56;;;;;;;0.40;0.20;;;;;;;-148.56;100.00;61375.16;4980902;28;20045;-33
2022/06/28 00:45:22;;;;;;;0.10;0.10;;;;;;;-148.56;100.00;61375.16;5007317;28;20036;-33
2022/06/28 00:47:47;;;;;;;0.10;0.10;;;;;;;-148.56;100.00;61375.16;5010382;28;20029;-33
2022/06/28 00:50:13;;;;;;;0.20;0.20;;;;;;;-148.56;100.00;61375.16;4989483;28;21123;-36
2022/06/28 00:53:11;;;;;;;0.20;0.20;;;;;;;-148.56;100.00;61375.16;5005809;28;20482;-36
2022/06/28 00:55:36;;;;;;;0.10;0.10;;;;;;;-148.56;100.00;61375.16;5004432;28;20498;-30
2022/06/28 00:58:02;;;;;;;0.20;0.20;;;;;;;-148.56;100.00;61375.16;5007891;28;20033;-37
2022/06/28 01:00:29;;;;;;;0.20;0.20;;;;;;;-148.56;100.00;61375.16;5007836;28;20036;-33
2022/06/28 01:02:55;;;;;;;0.20;0.20;;;;;;;-148.56;100.00;61375.16;5006235;28;20536;-33
2022/06/28 01:05:20;;;;;;;0.25;0.20;;;;;;;-148.56;100.00;61375.16;5006002;28;20037;-33
2022/06/28 01:07:45;;;;;;;0.20;0.20;;;;;;;-148.56;100.00;61375.16;5005702;28;20076;-37
2022/06/28 01:10:11;;;;;;;0.20;0.20;;;;;;;-148.56;100.00;61375.16;5005114;28;20064;-37
2022/06/28 01:12:36;;;;;;;0.20;0.20;;;;;;;-148.56;100.00;61375.16;5006728;28;20032;-35
2022/06/28 01:15:02;;;;;;;0.20;0.20;;;;;;;-148.56;100.00;61375.16;5004736;28;21944;-33
2022/06/28 01:17:27;;;;;;;0.20;0.20;;;;;;;-148.56;100.00;61375.16;5004705;28;20026;-35
2022/06/28 01:19:53;;;;;;;0.20;0.20;;;;;;;-148.56;100.00;61375.16;5009925;28;20040;-32
2022/06/28 01:22:18;;;;;;;0.20;0.13;;;;;;;-148.56;100.00;61375.16;5005755;28;20742;-31
2022/06/28 01:24:43;;;;;;;0.30;0.10;;;;;;;-148.56;100.00;61375.16;5008808;28;20037;-35
2022/06/28 01:27:09;;;;;;;0.10;0.10;;;;;;;-148.56;100.00;61375.16;5004839;28;20018;-31
2022/06/28 01:29:34;;;;;;;0.20;0.20;;;;;;;-148.56;100.00;61375.16;5009764;28;20408;-33
2022/06/28 01:31:59;;;;;;;0.10;0.10;;;;;;;-148.56;100.00;61375.16;5005890;28;20041;-35
2022/06/28 01:34:25;;;;;;;0.20;0.20;;;;;;;-148.56;100.00;61375.16;5004457;28;20038;-34
2022/06/28 01:36:50;;;;;;;0.10;0.10;;;;;;;-148.56;100.00;61375.16;5007357;28;20506;-36
2022/06/28 01:39:16;;;;;;;0.20;0.20;;;;;;;-148.56;100.00;61375.16;5012024;28;20059;-37
2022/06/28 01:41:43;;;;;;;0.15;0.15;;;;;;;-148.56;100.00;61375.16;4996794;28;20025;-38
2022/06/28 01:44:08;;;;;;;0.20;0.20;;;;;;;-148.56;100.00;61375.16;5000495;28;20056;-34
2022/06/28 01:46:35;;;;;;;0.40;0.22;;;;;;;-148.56;100.00;61375.16;5013815;28;20167;-34
2022/06/28 01:49:00;;;;;;;0.20;0.20;;;;;;;-148.56;100.00;61375.16;5009448;28;20029;-33
2022/06/28 01:51:26;;;;;;;0.10;0.10;;;;;;;-148.56;100.00;61375.16;5007870;28;20483;-31
2022/06/28 01:53:51;;;;;;;0.40;0.20;;;;;;;-148.56;100.00;61375.16;5008064;28;20062;-33
2022/06/28 01:56:17;;;;;;;0.35;0.28;;;;;;;-148.56;100.00;61375.16;5011118;28;20041;-36
2022/06/28 01:58:42;;;;;;;0.20;0.20;;;;;;;-148.56;100.00;61375.16;4994786;28;20040;-36
2022/06/28 02:01:08;;;;;;;0.10;0.10;;;;;;;-148.56;100.00;61375.16;5010717;28;20036;-33
2022/06/28 02:03:33;;;;;;;0.10;0.10;;;;;;;-148.56;100.00;61375.16;5009128;28;20049;-35
2022/06/28 02:05:59;;;;;;;0.20;0.20;;;;;;;-148.56;100.00;61375.16;5008806;28;20033;-39
2022/06/28 02:08:25;;;;;;;0.20;0.20;;;;;;;-148.56;100.00;61375.16;5005115;28;20073;-35
2022/06/28 02:10:50;;;;;;;0.10;0.10;;;;;;;-148.56;100.00;61375.16;5009104;28;20709;-32
2022/06/28 02:13:15;;;;;;;0.10;0.10;;;;;;;-148.56;100.00;61375.16;5006928;28;20736;-35
2022/06/28 02:15:41;;;;;;;0.17;0.17;;;;;;;-148.56;100.00;61375.16;5007487;28;20028;-33
2022/06/28 02:18:06;;;;;;;0.10;0.10;;;;;;;-148.56;100.00;61375.16;5004972;28;20410;-33
2022/06/28 02:20:32;;;;;;;0.20;0.20;;;;;;;-148.56;100.00;61375.16;5010571;28;20143;-33
2022/06/28 02:22:58;;;;;;;0.20;0.15;;;;;;;-148.56;100.00;61375.16;5007856;28;20017;-35
2022/06/28 02:25:23;;;;;;;0.10;0.10;;;;;;;-148.56;100.00;61375.16;5007586;28;20034;-31
2022/06/28 02:27:49;;;;;;;0.10;0.10;;;;;;;-148.56;100.00;61375.16;5010148;28;20032;-32
2022/06/28 02:30:14;;;;;;;0.20;0.20;;;;;;;-148.56;100.00;61375.16;5007859;28;20767;-34
2022/06/28 02:32:40;;;;;;;0.10;0.10;;;;;;;-148.56;100.00;61375.16;5005890;28;20045;-36
2022/06/28 02:40:33;;;;;;;0.10;0.10;;;;;;;-148.56;100.00;61375.16;5006987;28;20041;-37
2022/06/28 02:43:00;;;;;;;0.10;0.10;;;;;;;-148.56;100.00;61375.16;5009886;28;20026;-31
2022/06/28 02:45:28;;;;;;;0.10;0.10;;;;;;;-148.56;100.00;61375.16;5005519;28;20025;-33
2022/06/28 02:47:54;;;;;;;0.22;0.15;;;;;;;-148.56;100.00;61375.16;5010537;28;20017;-34
2022/06/28 02:50:20;;;;;;;0.10;0.10;;;;;;;-148.56;100.00;61375.16;4984994;28;20056;-34
2022/06/28 02:52:45;;;;;;;0.10;0.10;;;;;;;-148.56;100.00;61375.16;4988350;28;20036;-32
2022/06/28 02:55:11;;;;;;;0.20;0.20;;;;;;;-148.56;100.00;61375.16;4987594;28;20029;-36
2022/06/28 02:57:36;;;;;;;0.10;0.10;;;;;;;-148.56;100.00;61375.16;4986803;28;20030;-34
2022/06/28 03:00:05;;;;;;;0.20;0.20;;;;;;;-148.56;100.00;61375.16;4989820;28;20064;-37
2022/06/28 03:02:30;;;;;;;0.20;0.20;;;;;;;-148.56;100.00;61375.16;4991721;28;20048;-33
2022/06/28 03:04:56;;;;;;;0.30;0.17;;;;;;;-148.56;100.00;61375.16;4988599;28;20037;-34
2022/06/28 03:07:21;;;;;;;0.13;0.08;;;;;;;-148.56;100.00;61375.16;5002083;28;20029;-35
2022/06/28 03:09:46;;;;;;;0.85;0.28;;;;;;;-148.56;100.00;61375.16;5006716;28;20034;-31
2022/06/28 03:12:12;;;;;;;0.20;0.20;;;;;;;-148.56;100.00;61375.16;5007884;28;20029;-36
2022/06/28 03:14:37;;;;;;;0.10;0.10;;;;;;;-148.56;100.00;61375.16;5005587;28;20384;-33
2022/06/28 03:17:03;;;;;;;0.20;0.20;;;;;;;-148.56;100.00;61375.16;5008558;28;20084;-33
2022/06/28 03:19:28;;;;;;;0.20;0.20;;;;;;;-148.56;100.00;61375.16;5005898;28;20021;-33
2022/06/28 03:21:54;;;;;;;0.10;0.10;;;;;;;-148.56;100.00;61375.16;5005887;28;20040;-35
2022/06/28 03:24:19;;;;;;;0.20;0.20;;;;;;;-148.56;100.00;61375.16;5009625;28;20034;-31
2022/06/28 03:26:45;;;;;;;0.10;0.10;;;;;;;-148.56;100.00;61375.16;5009116;28;20025;-33
2022/06/28 03:29:10;;;;;;;0.10;0.10;;;;;;;-148.56;100.00;61375.16;5010281;28;20033;-38
2022/06/28 03:31:35;;;;;;;1.08;0.13;;;;;;;-148.56;100.00;61375.16;5011028;28;20065;-37
2022/06/28 03:34:01;;;;;;;0.10;0.10;;;;;;;-148.56;100.00;61375.16;5006423;28;21100;-33
2022/06/28 03:36:26;;;;;;;0.50;0.20;;;;;;;-148.56;100.00;61375.16;5005735;28;20135;-32
2022/06/28 03:38:52;;;;;;;0.20;0.20;;;;;;;-148.56;100.00;61375.16;5005204;28;20763;-35
2022/06/28 03:41:22;;;;;;;0.20;0.20;;;;;;;-148.56;100.00;61375.16;5006161;28;20038;-35
2022/06/28 03:43:53;;;;;;;0.10;0.10;;;;;;;-148.56;100.00;61375.16;5005454;28;20611;-32
2022/06/28 03:46:19;;;;;;;0.10;0.10;;;;;;;-148.56;100.00;61375.16;5007670;28;20033;-37
2022/06/28 03:48:45;;;;;;;0.10;0.10;;;;;;;-148.56;100.00;61375.16;5010103;28;20037;-37
2022/06/28 03:51:10;;;;;;;0.10;0.10;;;;;;;-148.56;100.00;61375.16;5009578;28;20021;-33
2022/06/28 03:53:36;;;;;;;0.20;0.20;;;;;;;-148.56;100.00;61375.16;5006282;28;20065;-36
2022/06/28 03:56:01;;;;;;;0.22;0.22;;;;;;;-148.56;100.00;61375.16;5003044;28;20041;-33
2022/06/28 03:58:27;;;;;;;0.10;0.10;;;;;;;-148.56;100.00;61375.16;5005254;28;20034;-37
2022/06/28 04:00:52;;;;;;;0.10;0.10;;;;;;;-148.56;100.00;61375.16;5006529;28;20028;-36
2022/06/28 04:03:18;;;;;;;0.10;0.10;;;;;;;-148.56;100.00;61375.16;5007797;28;20033;-32
2022/06/28 04:05:43;;;;;;;0.13;0.13;;;;;;;-148.56;100.00;61375.16;5004173;28;20517;-37
2022/06/28 04:08:09;;;;;;;0.10;0.10;;;;;;;-148.56;100.00;61375.16;4969565;28;20048;-34
2022/06/28 04:10:35;;;;;;;0.15;0.15;;;;;;;-148.56;100.00;61375.16;4967170;28;20146;-38
2022/06/28 04:13:00;;;;;;;0.20;0.20;;;;;;;-148.56;100.00;61375.16;4962228;28;20524;-31
2022/06/28 04:15:25;;;;;;;0.20;0.20;;;;;;;-148.56;100.00;61375.16;4956572;28;20073;-36
2022/06/28 04:17:51;;;;;;;0.10;0.10;;;;;;;-148.56;100.00;61375.16;4962465;28;20854;-37
2022/06/28 04:20:16;;;;;;;0.22;0.20;;;;;;;-148.56;100.00;61375.16;4972847;28;20034;-33
2022/06/28 04:22:42;;;;;;;0.10;0.10;;;;;;;-148.56;100.00;61375.16;4960879;28;20039;-31
2022/06/28 04:25:08;;;;;;;0.13;0.13;;;;;;;-148.56;100.00;61375.16;4964426;28;20045;-38
2022/06/28 04:27:33;;;;;;;0.10;0.10;;;;;;;-148.56;100.00;61375.16;4961260;28;20044;-37
2022/06/28 04:29:59;;;;;;;0.20;0.20;;;;;;;-148.56;100.00;61375.16;4962611;28;20057;-29
2022/06/28 04:32:25;;;;;;;0.10;0.10;;;;;;;-148.56;100.00;61375.16;4962983;28;20033;-33
2022/06/28 04:34:50;;;;;;;0.20;0.20;;;;;;;-148.56;100.00;61375.16;4960634;28;20672;-37
2022/06/28 04:37:16;;;;;;;0.10;0.10;;;;;;;-148.56;100.00;61375.16;4959889;28;21089;-36
2022/06/28 04:39:41;;;;;;;0.10;0.10;;;;;;;-148.56;100.00;61375.16;4966907;28;20025;-36
2022/06/28 04:42:07;;;;;;;0.20;0.20;;;;;;;-148.56;100.00;61375.16;4964431;28;20092;-36
2022/06/28 04:44:33;;;;;;;0.10;0.10;;;;;;;-148.56;100.00;61375.16;4961692;28;20421;-36
2022/06/28 04:46:59;;;;;;;0.30;0.17;;;;;;;-148.56;100.00;61375.16;4962443;28;20047;-38
2022/06/28 04:49:25;;;;;;;0.10;0.10;;;;;;;-148.56;100.00;61375.16;4971259;28;20035;-35
2022/06/28 04:51:50;;;;;;;0.10;0.10;;;;;;;-148.56;100.00;61375.16;4962191;28;20872;-33
2022/06/28 04:54:16;;;;;;;0.20;0.20;;;;;;;-148.56;100.00;61375.16;4970676;28;20063;-33
2022/06/28 04:56:41;;;;;;;0.10;0.10;;;;;;;-148.56;100.00;61375.16;4962218;28;20057;-33
2022/06/28 04:59:07;;;;;;;0.20;0.20;;;;;;;-148.56;100.00;61375.16;4968248;28;20164;-35
2022/06/28 05:01:32;;;;;;;0.17;0.10;;;;;;;-148.56;100.00;61375.16;4960738;28;20036;-32
2022/06/28 05:03:57;;;;;;;0.10;0.10;;;;;;;-148.56;100.00;61375.16;4963744;28;20064;-34
2022/06/28 05:06:23;;;;;;;0.20;0.20;;;;;;;-148.56;100.00;61375.16;4981997;28;20147;-32
2022/06/28 05:08:48;;;;;;;0.10;0.10;;;;;;;-148.56;100.00;61375.16;5010890;28;20527;-35
2022/06/28 05:11:14;;;;;;;0.20;0.20;;;;;;;-148.56;100.00;61375.16;5007910;28;20021;-34
2022/06/28 05:13:39;;;;;;;0.20;0.20;;;;;;;-148.56;100.00;61375.16;5007504;28;20155;-34
2022/06/28 05:16:04;;;;;;;0.10;0.10;;;;;;;-148.56;100.00;61375.16;4998421;28;20029;-35
2022/06/28 05:18:30;;;;;;;0.10;0.10;;;;;;;-148.56;100.00;61375.16;5011520;28;20781;-34
2022/06/28 05:20:55;;;;;;;0.10;0.10;;;;;;;-148.56;100.00;61375.16;5009808;28;20029;-32
2022/06/28 05:23:21;;;;;;;0.10;0.10;;;;;;;-148.56;100.00;61375.16;5007553;28;20034;-32
2022/06/28 05:25:46;;;;;;;0.10;0.10;;;;;;;-148.56;100.00;61375.16;5009318;28;20029;-32
2022/06/28 05:28:12;;;;;;;0.10;0.10;;;;;;;-148.56;100.00;61375.16;5009457;28;20675;-31
2022/06/28 05:30:37;;;;;;;0.17;0.17;;;;;;;-148.56;100.00;61375.16;5008999;28;20018;-34
2022/06/28 05:33:03;;;;;;;0.15;0.15;;;;;;;-148.56;100.00;61375.16;5011778;28;20034;-33
2022/06/28 05:35:29;;;;;;;0.20;0.20;;;;;;;-148.56;100.00;61375.16;5007282;28;20037;-39
2022/06/28 05:37:55;;;;;;;0.10;0.10;;;;;;;-148.56;100.00;61375.16;5010868;28;20029;-37
2022/06/28 05:40:21;;;;;;;0.10;0.10;;;;;;;-148.56;100.00;61375.16;5010353;28;20055;-32
2022/06/28 05:42:46;;;;;;;0.10;0.10;;;;;;;-148.56;100.00;61375.16;5006355;28;20029;-32
2022/06/28 05:45:12;;;;;;;0.75;0.20;;;;;;;-148.56;100.00;61375.16;5008010;28;20044;-36
2022/06/28 05:47:37;;;;;;;0.25;0.25;;;;;;;-148.56;100.00;61375.16;5009341;28;20716;-35
2022/06/28 05:50:03;;;;;;;0.28;0.10;;;;;;;-148.56;100.00;61375.16;5012800;28;20034;-35
2022/06/28 05:52:28;;;;;;;0.20;0.20;;;;;;;-148.56;100.00;61375.16;5008878;28;20029;-31
2022/06/28 05:54:53;;;;;;;0.10;0.10;;;;;;;-148.56;100.00;61375.16;5009622;28;20026;-37
2022/06/28 05:57:19;;;;;;;0.25;0.25;;;;;;;-148.56;100.00;61375.16;5008914;28;20499;-36
2022/06/28 05:59:44;;;;;;;0.13;0.10;;;;;;;-148.56;100.00;61375.16;5007703;28;20030;-36
2022/06/28 06:02:10;;;;;;;0.20;0.20;;;;;;;-148.56;100.00;61375.16;5012231;28;20017;-34
2022/06/28 06:04:35;;;;;;;0.20;0.20;;;;;;;-148.56;100.00;61375.16;5007516;28;20032;-34
2022/06/28 06:07:01;;;;;;;0.30;0.10;;;;;;;-148.56;100.00;61375.16;5008674;28;20593;-35
2022/06/28 06:09:26;;;;;;;0.00;0.00;;;;;;;-148.56;100.00;61375.16;5012911;28;20045;-34
2022/06/28 06:11:51;;;;;;;0.10;0.10;;;;;;;-148.56;100.00;61375.16;5013132;28;20912;-38
2022/06/28 06:14:17;;;;;;;0.20;0.20;;;;;;;-148.56;100.00;61375.16;5004599;28;20029;-36
2022/06/28 06:16:43;;;;;;;0.15;0.10;;;;;;;-148.56;100.00;61375.16;5006557;28;20041;-34
2022/06/28 06:19:09;;;;;;;0.20;0.10;;;;;;;-148.56;100.00;61375.16;5009199;28;20026;-37
2022/06/28 06:21:34;;;;;;;0.13;0.13;;;;;;;-148.56;100.00;61375.16;5006345;28;20040;-37
2022/06/28 06:23:59;;;;;;;0.10;0.10;;;;;;;-148.56;100.00;61375.16;5009977;28;20017;-37
2022/06/28 06:26:25;;;;;;;0.10;0.10;;;;;;;-148.56;100.00;61375.16;5007737;28;20045;-34
2022/06/28 06:28:51;;;;;;;0.20;0.20;;;;;;;-148.56;100.00;61375.16;5009114;28;20022;-37
2022/06/28 06:31:16;;;;;;;0.10;0.10;;;;;;;-148.56;100.00;61375.16;5004278;28;20132;-36
2022/06/28 06:33:41;;;;;;;0.20;0.20;;;;;;;-148.56;100.00;61375.16;5009305;28;20696;-32
2022/06/28 06:36:07;;;;;;;0.28;0.10;;;;;;;-148.56;100.00;61375.16;5009138;28;20044;-31
2022/06/28 06:38:32;;;;;;;0.15;0.15;;;;;;;-148.56;100.00;61375.16;5010862;28;20158;-39
2022/06/28 06:40:59;;;;;;;0.85;0.20;;;;;;;-148.56;100.00;61375.16;5006940;28;20154;-33
2022/06/28 06:43:26;;;;;;;0.10;0.10;;;;;;;-148.56;100.00;61375.16;5005231;28;20029;-36
2022/06/28 06:45:52;;;;;;;0.25;0.25;;;;;;;-148.56;100.00;61375.16;5005880;28;20825;-30
2022/06/28 06:48:17;;;;;;;0.10;0.10;;;;;;;-148.56;100.00;61375.16;5008426;28;20040;-33
2022/06/28 06:50:42;;;;;;;0.20;0.20;;;;;;;-148.56;100.00;61375.16;5009732;28;20041;-34
2022/06/28 06:53:09;;;;;;;0.20;0.20;;;;;;;-148.56;100.00;61375.16;5009398;28;20021;-36
2022/06/28 06:55:34;;;;;;;0.40;0.20;;;;;;;-148.56;100.00;61375.16;5005021;28;20091;-35
2022/06/28 06:58:00;;;;;;;0.20;0.20;;;;;;;-148.56;100.00;61375.16;5009523;28;20014;-35
2022/06/28 07:00:25;;;;;;;0.20;0.20;;;;;;;-148.56;100.00;61375.16;5004267;28;20108;-30
2022/06/28 07:02:51;;;;;;;0.28;0.28;;;;;;;-148.56;100.00;61375.16;5004981;28;20372;-34
2022/06/28 07:05:16;;;;;;;0.20;0.20;;;;;;;-148.56;100.00;61375.16;5004670;28;20032;-37
2022/06/28 07:07:41;;;;;;;0.20;0.20;;;;;;;-148.56;100.00;61375.16;5007959;28;20033;-33
2022/06/28 07:10:07;;;;;;;0.52;0.30;;;;;;;-148.56;100.00;61375.16;5003980;28;20115;-32
2022/06/28 07:12:32;;;;;;;0.30;0.20;;;;;;;-148.56;100.00;61375.16;5010146;28;20037;-31
2022/06/28 07:14:58;;;;;;;0.20;0.20;;;;;;;-148.56;100.00;61375.16;5007894;28;20017;-31
2022/06/28 07:17:24;;;;;;;0.10;0.10;;;;;;;-148.56;100.00;61375.16;5005862;28;20029;-34
2022/06/28 07:19:49;;;;;;;0.10;0.10;;;;;;;-148.56;100.00;61375.16;5005465;28;20024;-36
2022/06/28 07:22:15;;;;;;;0.20;0.20;;;;;;;-148.56;100.00;61375.16;5003936;28;20021;-33
2022/06/28 07:24:40;;;;;;;0.40;0.13;;;;;;;-148.56;100.00;61375.16;5006951;28;20032;-31
2022/06/28 07:27:05;;;;;;;0.17;0.17;;;;;;;-148.56;100.00;61375.16;5005904;28;20032;-33
2022/06/28 07:29:31;;;;;;;0.20;0.20;;;;;;;-148.56;100.00;61375.16;5007504;28;20037;-36
2022/06/28 07:31:56;;;;;;;0.85;0.20;;;;;;;-148.56;100.00;61375.16;5007804;28;20034;-30
2022/06/28 07:34:22;;;;;;;0.20;0.20;;;;;;;-148.56;100.00;61375.16;5008234;28;20033;-35
2022/06/28 07:36:48;;;;;;;0.10;0.10;;;;;;;-148.56;100.00;61375.16;5006182;28;20776;-32
2022/06/28 07:39:13;;;;;;;0.20;0.20;;;;;;;-148.56;100.00;61375.16;5008901;28;20052;-38
2022/06/28 07:41:38;;;;;;;0.40;0.20;;;;;;;-148.56;100.00;61375.16;5005653;28;20029;-31
2022/06/28 07:44:04;;;;;;;0.10;0.10;;;;;;;-148.56;100.00;61375.16;4998661;28;20049;-38
2022/06/28 07:46:29;;;;;;;0.20;0.20;;;;;;;-148.56;100.00;61375.16;5004560;28;20032;-38
2022/06/28 07:48:55;;;;;;;0.30;0.30;;;;;;;-148.56;100.00;61375.16;5007500;28;20030;-33
2022/06/28 07:54:04;;;;;;;0.10;0.10;;;;;;;-148.56;100.00;61375.16;5009745;28;20033;-33
2022/06/28 07:56:30;;;;;;;0.40;0.25;;;;;;;-148.56;100.00;61375.16;5005343;28;20465;-35
2022/06/28 07:58:55;;;;;;;0.20;0.20;;;;;;;-148.56;100.00;61375.16;5008410;28;20695;-34
2022/06/28 08:01:21;;;;;;;0.38;0.20;;;;;;;-148.56;100.00;61375.16;5007426;28;20048;-31
2022/06/28 08:03:46;;;;;;;0.20;0.20;;;;;;;-148.56;100.00;61375.16;5005039;28;20034;-34
2022/06/28 08:06:12;;;;;;;0.25;0.20;;;;;;;-148.56;100.00;61375.16;5005541;28;20110;-40
2022/06/28 08:08:37;;;;;;;0.28;0.20;;;;;;;-148.56;100.00;61375.16;5005772;28;20228;-36
2022/06/28 08:11:03;;;;;;;0.17;0.17;;;;;;;-148.56;100.00;61375.16;5002208;28;20396;-32
2022/06/28 08:13:28;;;;;;;0.20;0.20;;;;;;;-148.56;100.00;61375.16;5009301;28;20558;-38
2022/06/28 08:15:53;;;;;;;0.30;0.20;;;;;;;-148.56;100.00;61375.16;5004620;28;21006;-34
2022/06/28 08:18:19;;;;;;;0.30;0.30;;;;;;;-148.56;100.00;61375.16;5004389;28;20688;-35
2022/06/28 08:20:44;;;;;;;0.20;0.20;;;;;;;-148.56;100.00;61375.16;5004271;28;20029;-37
2022/06/28 08:23:10;;;;;;;0.20;0.20;;;;;;;-148.56;100.00;61375.16;5001515;28;20931;-33
2022/06/28 08:25:35;;;;;;;0.10;0.10;;;;;;;-148.56;100.00;61375.16;5006936;28;20026;-33
2022/06/28 08:28:01;;;;;;;0.35;0.20;;;;;;;-148.56;100.00;61375.16;5008451;28;20037;-35
2022/06/28 08:30:27;;;;;;;0.47;0.20;;;;;;;-148.56;100.00;61375.16;5008489;28;20025;-34
2022/06/28 08:32:52;;;;;;;0.20;0.20;;;;;;;-148.56;100.00;61375.16;5006065;28;20038;-33
2022/06/28 08:35:19;;;;;;;0.20;0.20;;;;;;;-148.56;100.00;61375.16;5004834;28;20065;-37
2022/06/28 08:37:45;;;;;;;0.20;0.20;;;;;;;-148.56;100.00;61375.16;5002207;28;20147;-35
2022/06/28 08:40:10;;;;;;;0.17;0.17;;;;;;;-148.56;100.00;61375.16;5009915;28;20025;-36
2022/06/28 08:42:40;;;;;;;0.25;0.25;;;;;;;-148.56;100.00;61375.16;4999619;28;20496;-36
2022/06/28 08:45:06;;;;;;;0.20;0.20;;;;;;;-148.56;100.00;61375.16;5005592;28;20065;-38
2022/06/28 08:47:33;;;;;;;0.15;0.15;;;;;;;-148.56;100.00;61375.16;5010050;28;20140;-32
2022/06/28 08:50:13;;;;;;;0.40;0.20;;;;;;;-148.56;100.00;61375.16;5003894;28;20045;-36
2022/06/28 08:52:39;;;;;;;0.20;0.20;;;;;;;-148.56;100.00;61375.16;4992352;28;20079;-37
2022/06/28 08:55:06;;;;;;;0.20;0.20;;;;;;;-148.56;100.00;61375.16;5006941;28;20096;-34
2022/06/28 08:57:32;;;;;;;0.32;0.20;;;;;;;-148.56;100.00;61375.16;5011592;28;20124;-36
2022/06/28 08:59:58;;;;;;;0.30;0.30;;;;;;;-148.56;100.00;61375.16;5007952;28;20480;-33
2022/06/28 09:02:24;;;;;;;0.17;0.17;;;;;;;-148.56;100.00;61375.16;5009509;28;20033;-36
2022/06/28 09:04:51;;;;;;;0.15;0.10;;;;;;;-148.56;100.00;61375.16;5007215;28;20375;-36
2022/06/28 09:07:17;;;;;;;0.17;0.17;;;;;;;-148.56;100.00;61375.16;5009410;28;20037;-37
2022/06/28 09:09:42;;;;;;;0.47;0.30;;;;;;;-148.56;100.00;61375.16;5006389;28;20049;-35
2022/06/28 09:12:08;;;;;;;0.20;0.20;;;;;;;-148.56;100.00;61375.16;5011987;28;20028;-36
2022/06/28 09:14:34;;;;;;;0.10;0.10;;;;;;;-148.56;100.00;61375.16;5006402;28;20032;-37
2022/06/28 09:17:34;;;;;;;0.20;0.20;;;;;;;-148.56;100.00;61375.16;5006785;28;20041;-34
2022/06/28 09:20:01;;;;;;;0.43;0.30;;;;;;;-148.56;100.00;61375.16;5005989;28;20029;-34
2022/06/28 09:22:42;;;;;;;0.20;0.20;;;;;;;-148.56;100.00;61375.16;5007213;28;20720;-34
2022/06/28 09:25:09;;;;;;;0.10;0.10;;;;;;;-148.56;100.00;61375.16;5001928;28;20037;-39
2022/06/28 09:27:39;;;;;;;0.20;0.20;;;;;;;-148.56;100.00;61375.16;5008165;28;20040;-34
2022/06/28 09:30:06;;;;;;;0.20;0.20;;;;;;;-148.56;100.00;61375.16;5008823;28;20078;-37
2022/06/28 09:32:33;;;;;;;0.22;0.22;;;;;;;-148.56;100.00;61375.16;5007782;28;20515;-36
2022/06/28 09:35:00;;;;;;;0.30;0.10;;;;;;;-148.56;100.00;61375.16;5005122;28;20033;-31
2022/06/28 09:37:47;;;;;;;0.22;0.22;;;;;;;-148.56;100.00;61375.16;5009084;28;20034;-38
2022/06/28 09:40:22;;;;;;;0.20;0.20;;;;;;;-148.56;100.00;61375.16;5012034;28;20083;-38
2022/06/28 09:43:06;;;;;;;0.20;0.20;;;;;;;-148.56;100.00;61375.16;5009164;28;20505;-34
2022/06/28 09:45:32;;;;;;;0.20;0.20;;;;;;;-148.56;100.00;61375.16;5006297;28;20049;-38
2022/06/28 09:47:58;;;;;;;0.25;0.20;;;;;;;-148.56;100.00;61375.16;5011433;28;20032;-37
2022/06/28 09:50:23;;;;;;;0.85;0.20;;;;;;;-148.56;100.00;61375.16;5007808;28;20424;-38
2022/06/28 09:52:49;;;;;;;0.20;0.20;;;;;;;-148.56;100.00;61375.16;5009218;28;20083;-34
2022/06/28 09:55:15;;;;;;;0.20;0.20;;;;;;;-148.56;100.00;61375.16;5008426;28;20121;-37
2022/06/28 09:57:42;;;;;;;0.20;0.20;;;;;;;-148.56;100.00;61375.16;5010994;28;20030;-35
2022/06/28 10:00:08;;;;;;;0.20;0.20;;;;;;;-148.56;100.00;61375.16;5008765;28;20022;-34
2022/06/28 10:02:34;;;;;;;0.20;0.20;;;;;;;-148.56;100.00;61375.16;5004860;28;20041;-36
2022/06/28 10:05:01;;;;;;;0.20;0.20;;;;;;;-148.56;100.00;61375.16;5021435;28;20087;-35
2022/06/28 10:07:30;;;;;;;0.28;0.20;;;;;;;-148.56;100.00;61375.16;5004650;28;20029;-34
2022/06/28 10:09:55;;;;;;;0.30;0.30;;;;;;;-148.56;100.00;61375.16;4985188;28;20383;-33
2022/06/28 10:15:06;;;;;;;0.30;0.20;;;;;;;-148.56;100.00;61375.16;5008326;28;20428;-35
2022/06/28 10:18:03;;;;;;;0.43;0.17;;;;;;;-148.56;100.00;61375.16;5010995;28;20811;-34
2022/06/28 10:20:33;;;;;;;0.20;0.20;;;;;;;-148.56;100.00;61375.16;5004248;28;20071;-36
2022/06/28 10:23:38;;;;;;;0.20;0.20;;;;;;;-148.56;100.00;61375.16;5003107;28;20475;-36
2022/06/28 10:26:15;;;;;;;0.10;0.10;;;;;;;-148.56;100.00;61375.16;5007271;28;20057;-36
2022/06/28 10:29:06;;;;;;;0.22;0.20;;;;;;;-148.56;100.00;61375.16;5009073;28;20037;-38
2022/06/28 10:31:32;;;;;;;0.20;0.20;;;;;;;-148.56;100.00;61375.16;5010615;28;20044;-37
2022/06/28 10:34:02;;;;;;;0.75;0.30;;;;;;;-148.56;100.00;61375.16;5006126;28;20307;-35
2022/06/28 10:36:33;;;;;;;0.20;0.20;;;;;;;-148.56;100.00;61375.16;5014150;28;20049;-37
2022/06/28 10:39:01;;;;;;;0.17;0.17;;;;;;;-148.56;100.00;61375.16;5006064;28;20025;-46
2022/06/28 10:41:43;;;;;;;0.10;0.10;;;;;;;-148.56;100.00;61375.16;5009058;28;20112;-37
2022/06/28 10:44:08;;;;;;;;;;;;;;;-148.56;100.00;61375.16;5003988;28;20056;-35
2022/06/28 10:46:34;;;;;;;0.30;0.20;;;;;;;-148.56;100.00;61375.16;5008792;28;19927;-37
2022/06/28 10:49:01;;;;;;;0.22;0.22;;;;;;;-148.56;100.00;61375.16;5006421;28;20620;-34
2022/06/28 10:51:26;;;;;;;0.20;0.20;;;;;;;-148.56;100.00;61375.16;5008168;28;20025;-34
2022/06/28 10:53:54;;;;;;;0.30;0.30;;;;;;;-148.56;100.00;61375.16;5008861;28;20689;-38
2022/06/28 10:56:21;;;;;;;0.20;0.20;;;;;;;-148.56;100.00;61375.16;5007056;28;20037;-37
2022/06/28 10:59:08;;;;;;;0.20;0.20;;;;;;;-148.56;100.00;61375.16;5009507;28;20052;-37
2022/06/28 11:01:40;;;;;;;0.20;0.20;;;;;;;-148.56;100.00;61375.16;5007377;28;20028;-36
2022/06/28 11:04:23;;;;;;;0.20;0.20;;;;;;;-148.56;100.00;61375.16;5007626;28;20507;-37
2022/06/28 11:06:59;;;;;;;0.20;0.20;;;;;;;-148.56;100.00;61375.16;5008190;28;20038;-35
2022/06/28 11:09:58;;;;;;;0.20;0.17;;;;;;;-148.56;100.00;61375.16;5009864;28;20037;-36
2022/06/28 11:12:30;;;;;;;0.30;0.30;;;;;;;-148.56;100.00;61375.16;5007214;28;20045;-33
2022/06/28 11:15:11;;;;;;;0.13;0.13;;;;;;;-148.56;100.00;61375.16;5002896;28;20041;-34
2022/06/28 11:17:39;;;;;;;;;;;;;;;-148.56;100.00;61375.16;5004452;28;20104;-36
2022/06/28 11:20:13;;;;;;;0.22;0.20;;;;;;;-148.56;100.00;61375.16;5010677;28;19963;-35